createdAt,value
2023-03-20T00:00:34.245Z,11.27
2023-03-20T00:01:22.876Z,11.10
2023-03-20T00:02:19.037Z,11.10
2023-03-20T00:03:05.905Z,10.93
2023-03-20T00:03:52.952Z,10.02
2023-03-20T00:04:39.849Z,10.80
2023-03-20T00:05:28.464Z,10.70
2023-03-20T00:06:17.076Z,11.00
2023-03-20T00:07:04.131Z,11.88
2023-03-20T00:07:52.968Z,10.75
2023-03-20T00:08:39.975Z,10.43
2023-03-20T00:09:27.356Z,11.00
2023-03-20T00:10:14.432Z,11.32
2023-03-20T00:11:01.874Z,11.30
2023-03-20T00:11:50.776Z,11.35
2023-03-20T00:12:38.035Z,11.10
2023-03-20T00:13:28.278Z,10.85
2023-03-20T00:14:16.787Z,10.55
2023-03-20T00:15:05.646Z,11.15
2023-03-20T00:15:52.621Z,11.02
2023-03-20T00:16:42.135Z,11.88
2023-03-20T00:17:29.013Z,10.60
2023-03-20T00:18:20.065Z,11.18
2023-03-20T00:19:10.531Z,10.73
2023-03-20T00:19:57.386Z,11.18
2023-03-20T00:20:46.641Z,11.73
2023-03-20T00:21:34.485Z,11.20
2023-03-20T00:22:22.666Z,10.85
2023-03-20T00:23:09.525Z,10.93
2023-03-20T00:23:56.869Z,11.10
2023-03-20T00:24:43.960Z,10.52
2023-03-20T00:25:30.965Z,11.25
2023-03-20T00:26:19.927Z,11.30
2023-03-20T00:27:06.836Z,11.60
2023-03-20T00:27:53.775Z,10.70
2023-03-20T00:28:43.138Z,11.45
2023-03-20T00:29:31.643Z,10.68
2023-03-20T00:30:28.695Z,10.65
2023-03-20T00:31:45.072Z,11.90
2023-03-20T00:32:32.007Z,11.30
2023-03-20T00:33:18.900Z,10.38
2023-03-20T00:34:10.609Z,11.05
2023-03-20T00:34:57.487Z,11.63
2023-03-20T00:35:44.409Z,11.70
2023-03-20T00:36:31.539Z,10.95
2023-03-20T00:37:18.426Z,11.35
2023-03-20T00:38:05.317Z,11.63
2023-03-20T00:38:52.252Z,11.35
2023-03-20T00:39:39.213Z,10.95
2023-03-20T00:40:30.399Z,10.52
2023-03-20T00:41:27.550Z,11.18
2023-03-20T00:42:21.595Z,12.07
2023-03-20T00:43:10.936Z,11.55
2023-03-20T00:44:04.640Z,10.98
2023-03-20T00:44:54.470Z,11.40
2023-03-20T00:45:41.389Z,11.73
2023-03-20T00:46:30.026Z,11.90
2023-03-20T00:47:19.481Z,11.68
2023-03-20T00:48:06.551Z,11.82
2023-03-20T00:48:53.663Z,11.25
2023-03-20T00:49:40.486Z,10.90
2023-03-20T00:50:30.112Z,11.77
2023-03-20T00:51:17.314Z,12.10
2023-03-20T00:52:05.691Z,12.00
2023-03-20T00:52:53.361Z,11.60
2023-03-20T00:53:40.316Z,11.65
2023-03-20T00:54:27.678Z,12.10
2023-03-20T00:55:14.666Z,10.77
2023-03-20T00:56:01.947Z,11.77
2023-03-20T00:56:56.315Z,10.82
2023-03-20T00:58:02.635Z,11.27
2023-03-20T00:58:50.667Z,11.15
2023-03-20T00:59:40.797Z,10.80
2023-03-20T01:00:38.450Z,11.75
2023-03-20T01:01:25.836Z,11.73
2023-03-20T01:02:13.113Z,11.60
2023-03-20T01:03:00.971Z,11.43
2023-03-20T01:03:48.068Z,11.60
2023-03-20T01:04:37.334Z,11.90
2023-03-20T01:05:25.415Z,11.93
2023-03-20T01:06:13.164Z,12.05
2023-03-20T01:07:01.001Z,12.27
2023-03-20T01:07:48.327Z,11.05
2023-03-20T01:08:35.213Z,11.70
2023-03-20T01:09:22.092Z,11.45
2023-03-20T01:10:11.792Z,12.32
2023-03-20T01:10:58.858Z,11.38
2023-03-20T01:11:46.625Z,11.52
2023-03-20T01:12:33.659Z,12.30
2023-03-20T01:13:27.659Z,12.32
2023-03-20T01:14:16.185Z,11.90
2023-03-20T01:15:03.347Z,11.30
2023-03-20T01:15:51.822Z,13.00
2023-03-20T01:16:38.766Z,11.40
2023-03-20T01:17:27.483Z,12.55
2023-03-20T01:18:18.479Z,12.23
2023-03-20T01:19:05.655Z,11.48
2023-03-20T01:19:52.855Z,11.48
2023-03-20T01:20:39.881Z,12.57
2023-03-20T01:21:26.734Z,11.15
2023-03-20T01:22:14.471Z,12.40
2023-03-20T01:23:01.352Z,11.68
2023-03-20T01:23:49.376Z,12.02
2023-03-20T01:24:38.132Z,12.23
2023-03-20T01:25:26.289Z,13.35
2023-03-20T01:26:19.222Z,12.05
2023-03-20T01:27:17.778Z,11.73
2023-03-20T01:28:21.714Z,12.20
2023-03-20T01:29:22.037Z,12.85
2023-03-20T01:30:35.141Z,12.52
2023-03-20T01:31:22.025Z,12.32
2023-03-20T01:32:17.644Z,12.77
2023-03-20T01:33:12.686Z,12.37
2023-03-20T01:33:59.581Z,12.40
2023-03-20T01:34:47.764Z,12.23
2023-03-20T01:35:34.848Z,13.13
2023-03-20T01:36:23.442Z,13.38
2023-03-20T01:37:14.252Z,12.63
2023-03-20T01:38:01.115Z,13.13
2023-03-20T01:38:54.694Z,12.37
2023-03-20T01:39:41.581Z,12.82
2023-03-20T01:40:34.046Z,12.60
2023-03-20T01:41:21.732Z,12.80
2023-03-20T01:42:08.732Z,12.02
2023-03-20T01:42:55.782Z,12.25
2023-03-20T01:43:43.724Z,12.30
2023-03-20T01:44:33.401Z,12.37
2023-03-20T01:45:23.284Z,12.45
2023-03-20T01:46:12.789Z,12.63
2023-03-20T01:47:01.974Z,12.60
2023-03-20T01:47:49.082Z,13.43
2023-03-20T01:49:05.952Z,12.27
2023-03-20T01:50:19.212Z,12.52
2023-03-20T01:51:06.501Z,12.45
2023-03-20T01:51:53.384Z,13.05
2023-03-20T01:52:40.570Z,12.88
2023-03-20T01:53:29.376Z,12.77
2023-03-20T01:54:27.708Z,12.98
2023-03-20T01:55:14.645Z,12.10
2023-03-20T01:56:01.958Z,12.82
2023-03-20T01:57:02.968Z,13.62
2023-03-20T01:57:51.621Z,13.27
2023-03-20T01:58:45.194Z,12.48
2023-03-20T01:59:38.060Z,13.00
2023-03-20T02:00:25.095Z,13.45
2023-03-20T02:01:14.008Z,13.23
2023-03-20T02:02:01.175Z,12.40
2023-03-20T02:02:48.637Z,13.65
2023-03-20T02:03:35.597Z,12.68
2023-03-20T02:04:26.916Z,12.80
2023-03-20T02:05:17.027Z,13.88
2023-03-20T02:06:04.415Z,12.98
2023-03-20T02:06:51.466Z,13.52
2023-03-20T02:07:39.402Z,15.13
2023-03-20T02:08:29.634Z,14.68
2023-03-20T02:09:16.938Z,13.65
2023-03-20T02:10:59.850Z,12.82
2023-03-20T02:11:47.080Z,14.50
2023-03-20T02:12:34.288Z,14.43
2023-03-20T02:13:21.746Z,15.52
2023-03-20T02:14:09.036Z,14.73
2023-03-20T02:14:56.369Z,14.50
2023-03-20T02:16:06.148Z,14.32
2023-03-20T02:16:53.302Z,14.45
2023-03-20T02:17:40.174Z,14.35
2023-03-20T02:18:27.167Z,14.43
2023-03-20T02:19:32.247Z,16.10
2023-03-20T02:20:24.639Z,14.18
2023-03-20T02:21:49.024Z,14.68
2023-03-20T02:22:54.027Z,13.88
2023-03-20T02:24:11.693Z,13.55
2023-03-20T02:25:17.294Z,14.80
2023-03-20T02:26:22.695Z,14.95
2023-03-20T02:27:14.460Z,14.43
2023-03-20T02:28:10.151Z,14.40
2023-03-20T02:29:28.792Z,15.50
2023-03-20T02:30:40.372Z,14.63
2023-03-20T02:31:32.677Z,15.98
2023-03-20T02:32:31.944Z,14.73
2023-03-20T02:33:30.598Z,15.93
2023-03-20T02:34:55.065Z,15.77
2023-03-20T02:35:54.137Z,15.65
2023-03-20T02:37:16.458Z,16.52
2023-03-20T02:38:12.166Z,16.00
2023-03-20T02:39:09.224Z,16.75
2023-03-20T02:40:13.174Z,15.70
2023-03-20T02:41:36.594Z,15.77
2023-03-20T02:42:46.326Z,16.58
2023-03-20T02:44:20.911Z,16.05
2023-03-20T02:45:27.567Z,16.12
2023-03-20T02:46:19.832Z,15.68
2023-03-20T02:47:51.493Z,15.48
2023-03-20T02:49:03.349Z,14.85
2023-03-20T02:50:17.647Z,15.13
2023-03-20T02:51:22.522Z,16.00
2023-03-20T02:52:34.324Z,16.10
2023-03-20T02:53:31.905Z,15.90
2023-03-20T02:54:50.232Z,15.68
2023-03-20T02:55:57.445Z,15.90
2023-03-20T02:57:06.376Z,16.15
2023-03-20T02:58:11.684Z,16.33
2023-03-20T02:59:04.212Z,15.75
2023-03-20T02:59:57.217Z,15.85
2023-03-20T03:00:53.186Z,15.88
2023-03-20T03:01:52.257Z,15.95
2023-03-20T03:02:43.585Z,16.98
2023-03-20T03:03:34.548Z,16.85
2023-03-20T03:04:26.456Z,16.52
2023-03-20T03:05:20.733Z,16.98
2023-03-20T03:06:12.851Z,17.48
2023-03-20T03:07:00.424Z,17.75
2023-03-20T03:07:50.115Z,17.90
2023-03-20T03:08:42.561Z,15.57
2023-03-20T03:09:36.124Z,16.30
2023-03-20T03:10:45.286Z,17.37
2023-03-20T03:11:35.047Z,16.27
2023-03-20T03:12:24.566Z,16.33
2023-03-20T03:13:20.063Z,17.12
2023-03-20T03:14:07.447Z,16.42
2023-03-20T03:14:57.175Z,16.08
2023-03-20T03:15:47.154Z,17.20
2023-03-20T03:16:36.886Z,13.45
2023-03-20T03:17:26.038Z,16.33
2023-03-20T03:18:17.353Z,16.85
2023-03-20T03:19:18.449Z,17.05
2023-03-20T03:20:09.715Z,17.25
2023-03-20T03:20:58.885Z,17.35
2023-03-20T03:21:47.265Z,16.75
2023-03-20T03:22:34.742Z,17.70
2023-03-20T03:23:36.054Z,17.42
2023-03-20T03:24:41.345Z,17.58
2023-03-20T03:25:33.410Z,17.02
2023-03-20T03:26:26.924Z,18.67
2023-03-20T03:27:21.954Z,16.60
2023-03-20T03:28:13.474Z,16.98
2023-03-20T03:29:07.263Z,15.68
2023-03-20T03:29:57.571Z,17.98
2023-03-20T03:30:45.492Z,16.58
2023-03-20T03:31:33.135Z,16.85
2023-03-20T03:32:37.148Z,17.10
2023-03-20T03:33:32.179Z,17.25
2023-03-20T03:34:22.325Z,17.62
2023-03-20T03:35:15.744Z,17.95
2023-03-20T03:36:16.429Z,16.73
2023-03-20T03:37:41.662Z,17.12
2023-03-20T03:38:37.797Z,17.00
2023-03-20T03:39:27.484Z,16.85
2023-03-20T03:40:23.530Z,17.02
2023-03-20T03:41:19.366Z,18.00
2023-03-20T03:42:06.342Z,17.35
2023-03-20T03:42:57.579Z,15.95
2023-03-20T03:43:50.032Z,17.42
2023-03-20T03:45:01.382Z,17.15
2023-03-20T03:45:59.906Z,16.85
2023-03-20T03:46:54.240Z,15.40
2023-03-20T03:47:47.583Z,16.42
2023-03-20T03:48:38.865Z,16.70
2023-03-20T03:49:33.100Z,17.58
2023-03-20T03:50:30.483Z,17.48
2023-03-20T03:51:21.996Z,16.45
2023-03-20T03:52:12.673Z,16.80
2023-03-20T03:54:01.662Z,16.27
2023-03-20T03:55:02.048Z,16.20
2023-03-20T03:55:52.562Z,12.90
2023-03-20T03:57:32.274Z,15.75
2023-03-20T03:58:27.636Z,16.73
2023-03-20T03:59:37.344Z,16.67
2023-03-20T04:00:25.673Z,17.67
2023-03-20T04:01:13.371Z,17.05
2023-03-20T04:02:01.746Z,18.98
2023-03-20T04:02:51.751Z,18.33
2023-03-20T04:03:42.225Z,18.98
2023-03-20T04:05:17.297Z,17.85
2023-03-20T04:06:06.035Z,18.58
2023-03-20T04:06:52.935Z,17.30
2023-03-20T04:07:40.301Z,17.48
2023-03-20T04:08:27.269Z,17.85
2023-03-20T04:09:14.125Z,17.92
2023-03-20T04:10:01.014Z,18.62
2023-03-20T04:10:47.948Z,18.27
2023-03-20T04:11:35.987Z,18.35
2023-03-20T04:12:36.097Z,17.12
2023-03-20T04:13:23.070Z,14.48
2023-03-20T04:14:09.986Z,17.58
2023-03-20T04:14:57.249Z,17.15
2023-03-20T04:15:44.607Z,19.23
2023-03-20T04:16:31.603Z,16.62
2023-03-20T04:17:18.530Z,18.92
2023-03-20T04:18:05.806Z,17.73
2023-03-20T04:18:52.838Z,18.33
2023-03-20T04:19:39.749Z,17.08
2023-03-20T04:20:26.627Z,16.67
2023-03-20T04:21:14.025Z,17.10
2023-03-20T04:22:01.246Z,18.95
2023-03-20T04:22:48.108Z,17.42
2023-03-20T04:23:35.170Z,18.48
2023-03-20T04:24:22.317Z,17.67
2023-03-20T04:25:10.750Z,18.33
2023-03-20T04:25:57.609Z,17.45
2023-03-20T04:26:44.530Z,17.65
2023-03-20T04:27:31.892Z,18.67
2023-03-20T04:28:19.699Z,17.45
2023-03-20T04:29:06.632Z,20.05
2023-03-20T04:29:53.502Z,18.58
2023-03-20T04:30:40.610Z,17.65
2023-03-20T04:31:28.812Z,17.45
2023-03-20T04:32:15.650Z,18.85
2023-03-20T04:33:02.622Z,19.35
2023-03-20T04:33:49.698Z,18.40
2023-03-20T04:34:36.552Z,18.30
2023-03-20T04:35:23.473Z,17.27
2023-03-20T04:36:10.743Z,18.95
2023-03-20T04:36:57.639Z,19.08
2023-03-20T04:37:44.514Z,18.30
2023-03-20T04:38:31.610Z,18.08
2023-03-20T04:39:18.492Z,18.85
2023-03-20T04:40:06.000Z,18.92
2023-03-20T04:40:52.949Z,18.52
2023-03-20T04:41:39.946Z,18.42
2023-03-20T04:42:26.801Z,19.20
2023-03-20T04:43:14.570Z,18.75
2023-03-20T04:44:01.431Z,18.73
2023-03-20T04:44:48.291Z,17.95
2023-03-20T04:45:35.423Z,19.83
2023-03-20T04:46:22.502Z,19.05
2023-03-20T04:47:09.427Z,19.73
2023-03-20T04:47:56.338Z,18.75
2023-03-20T04:48:43.288Z,19.15
2023-03-20T04:49:30.238Z,18.33
2023-03-20T04:50:17.167Z,18.50
2023-03-20T04:51:04.153Z,18.65
2023-03-20T04:51:51.159Z,19.60
2023-03-20T04:52:38.063Z,19.27
2023-03-20T04:53:27.087Z,19.37
2023-03-20T04:54:14.138Z,18.40
2023-03-20T04:55:01.032Z,18.77
2023-03-20T04:55:48.457Z,19.65
2023-03-20T04:56:35.568Z,19.27
2023-03-20T04:57:22.442Z,20.33
2023-03-20T04:58:09.319Z,20.33
2023-03-20T04:58:56.179Z,19.67
2023-03-20T04:59:43.249Z,18.60
2023-03-20T05:00:30.426Z,18.98
2023-03-20T05:01:17.471Z,20.67
2023-03-20T05:02:04.422Z,18.35
2023-03-20T05:02:51.581Z,19.77
2023-03-20T05:03:39.476Z,18.02
2023-03-20T05:04:26.532Z,18.35
2023-03-20T05:05:13.419Z,19.15
2023-03-20T05:06:00.688Z,18.87
2023-03-20T05:06:49.378Z,18.25
2023-03-20T05:07:36.300Z,19.15
2023-03-20T05:08:23.412Z,18.77
2023-03-20T05:09:11.174Z,20.58
2023-03-20T05:09:58.037Z,19.58
2023-03-20T05:10:44.997Z,18.35
2023-03-20T05:11:32.109Z,18.75
2023-03-20T05:12:19.008Z,19.62
2023-03-20T05:13:05.920Z,19.17
2023-03-20T05:13:52.942Z,19.02
2023-03-20T05:14:39.896Z,19.40
2023-03-20T05:15:27.156Z,19.10
2023-03-20T05:16:14.130Z,19.45
2023-03-20T05:17:01.592Z,19.33
2023-03-20T05:17:50.524Z,18.90
2023-03-20T05:18:38.752Z,19.40
2023-03-20T05:19:25.956Z,18.58
2023-03-20T05:20:13.054Z,19.30
2023-03-20T05:20:59.894Z,18.65
2023-03-20T05:21:46.823Z,18.83
2023-03-20T05:22:33.791Z,18.87
2023-03-20T05:23:20.811Z,18.45
2023-03-20T05:24:07.957Z,19.27
2023-03-20T05:24:54.834Z,19.08
2023-03-20T05:25:41.722Z,18.42
2023-03-20T05:26:28.613Z,19.65
2023-03-20T05:27:16.483Z,19.08
2023-03-20T05:28:03.606Z,19.10
2023-03-20T05:28:50.554Z,19.20
2023-03-20T05:29:37.714Z,18.83
2023-03-20T05:30:24.714Z,19.52
2023-03-20T05:31:12.242Z,19.33
2023-03-20T05:31:59.060Z,19.73
2023-03-20T05:32:46.080Z,19.55
2023-03-20T05:33:32.977Z,19.40
2023-03-20T05:34:19.967Z,19.70
2023-03-20T05:35:07.402Z,19.20
2023-03-20T05:35:54.281Z,18.60
2023-03-20T05:36:41.592Z,18.35
2023-03-20T05:37:28.446Z,19.90
2023-03-20T05:38:15.853Z,18.27
2023-03-20T05:39:02.855Z,18.83
2023-03-20T05:39:49.737Z,18.80
2023-03-20T05:40:36.613Z,20.73
2023-03-20T05:41:23.600Z,18.98
2023-03-20T05:42:10.770Z,19.75
2023-03-20T05:42:57.644Z,18.48
2023-03-20T05:43:44.654Z,19.42
2023-03-20T05:44:31.710Z,18.52
2023-03-20T05:45:19.121Z,18.73
2023-03-20T05:46:06.630Z,18.70
2023-03-20T05:46:53.528Z,18.17
2023-03-20T05:47:40.452Z,19.08
2023-03-20T05:48:27.407Z,19.65
2023-03-20T05:49:14.389Z,18.95
2023-03-20T05:50:01.470Z,19.25
2023-03-20T05:50:48.453Z,19.25
2023-03-20T05:51:35.787Z,19.12
2023-03-20T05:52:23.045Z,18.42
2023-03-20T05:53:09.984Z,18.15
2023-03-20T05:53:56.977Z,19.65
2023-03-20T05:54:43.924Z,18.33
2023-03-20T05:55:31.276Z,18.77
2023-03-20T05:56:18.211Z,18.10
2023-03-20T05:57:05.137Z,19.40
2023-03-20T05:57:52.108Z,19.23
2023-03-20T05:58:39.018Z,19.75
2023-03-20T05:59:25.889Z,17.62
2023-03-20T06:00:13.370Z,18.20
2023-03-20T06:01:00.306Z,18.98
2023-03-20T06:01:47.169Z,18.60
2023-03-20T06:02:34.321Z,19.62
2023-03-20T06:03:21.397Z,19.25
2023-03-20T06:04:08.798Z,18.58
2023-03-20T06:04:55.941Z,18.05
2023-03-20T06:05:42.929Z,19.58
2023-03-20T06:06:29.876Z,18.92
2023-03-20T06:07:16.821Z,18.83
2023-03-20T06:08:04.608Z,19.27
2023-03-20T06:08:51.516Z,18.08
2023-03-20T06:09:38.391Z,18.33
2023-03-20T06:10:25.297Z,18.48
2023-03-20T06:11:12.194Z,18.62
2023-03-20T06:11:59.326Z,18.92
2023-03-20T06:12:46.748Z,19.20
2023-03-20T06:13:33.687Z,17.70
2023-03-20T06:14:20.768Z,18.73
2023-03-20T06:15:08.189Z,17.25
2023-03-20T06:15:55.113Z,17.62
2023-03-20T06:16:42.004Z,18.23
2023-03-20T06:17:29.167Z,18.02
2023-03-20T06:18:16.268Z,18.67
2023-03-20T06:19:03.460Z,19.23
2023-03-20T06:19:50.537Z,18.52
2023-03-20T06:20:37.513Z,18.58
2023-03-20T06:21:24.457Z,17.40
2023-03-20T06:22:11.653Z,17.45
2023-03-20T06:22:58.589Z,17.17
2023-03-20T06:23:45.909Z,16.92
2023-03-20T06:24:33.528Z,17.58
2023-03-20T06:25:21.259Z,17.08
2023-03-20T06:26:08.413Z,17.37
2023-03-20T06:26:55.458Z,17.65
2023-03-20T06:27:42.378Z,18.12
2023-03-20T06:28:31.295Z,17.70
2023-03-20T06:29:18.176Z,16.95
2023-03-20T06:30:08.062Z,17.75
2023-03-20T06:30:54.975Z,17.25
2023-03-20T06:31:41.888Z,16.08
2023-03-20T06:32:28.705Z,18.00
2023-03-20T06:33:15.645Z,16.67
2023-03-20T06:34:05.008Z,17.05
2023-03-20T06:34:52.035Z,17.62
2023-03-20T06:35:39.496Z,18.40
2023-03-20T06:36:26.556Z,17.40
2023-03-20T06:37:13.444Z,17.52
2023-03-20T06:38:00.484Z,16.87
2023-03-20T06:38:47.332Z,16.25
2023-03-20T06:39:34.645Z,16.42
2023-03-20T06:40:22.693Z,17.52
2023-03-20T06:41:09.629Z,15.95
2023-03-20T06:41:56.802Z,17.45
2023-03-20T06:42:43.748Z,15.88
2023-03-20T06:43:30.701Z,16.75
2023-03-20T06:44:18.293Z,17.25
2023-03-20T06:45:05.769Z,15.77
2023-03-20T06:45:52.975Z,16.05
2023-03-20T06:46:39.920Z,17.00
2023-03-20T06:47:27.330Z,16.70
2023-03-20T06:48:14.442Z,16.37
2023-03-20T06:49:01.611Z,16.40
2023-03-20T06:49:49.167Z,16.90
2023-03-20T06:50:36.030Z,16.95
2023-03-20T06:51:22.914Z,16.48
2023-03-20T06:52:16.721Z,16.52
2023-03-20T06:53:03.799Z,16.60
2023-03-20T06:53:51.367Z,15.75
2023-03-20T06:54:38.269Z,16.52
2023-03-20T06:55:25.344Z,16.35
2023-03-20T06:56:12.245Z,16.60
2023-03-20T06:56:59.141Z,15.80
2023-03-20T06:57:46.124Z,16.00
2023-03-20T06:58:33.029Z,15.90
2023-03-20T06:59:19.881Z,16.30
2023-03-20T07:00:08.173Z,15.48
2023-03-20T07:00:55.163Z,16.55
2023-03-20T07:01:42.158Z,16.87
2023-03-20T07:02:29.405Z,16.98
2023-03-20T07:03:16.812Z,16.77
2023-03-20T07:04:03.735Z,17.00
2023-03-20T07:04:51.132Z,16.95
2023-03-20T07:05:40.540Z,16.52
2023-03-20T07:06:28.213Z,16.80
2023-03-20T07:07:15.176Z,18.10
2023-03-20T07:08:02.159Z,16.83
2023-03-20T07:08:49.554Z,18.25
2023-03-20T07:09:37.303Z,17.33
2023-03-20T07:10:24.667Z,18.17
2023-03-20T07:11:12.010Z,19.48
2023-03-20T07:11:59.740Z,21.67
2023-03-20T07:12:46.655Z,21.35
2023-03-20T07:13:33.808Z,19.90
2023-03-20T07:14:21.150Z,20.70
2023-03-20T07:15:08.248Z,20.83
2023-03-20T07:16:04.065Z,21.02
2023-03-20T07:16:52.084Z,18.45
2023-03-20T07:17:39.020Z,17.70
2023-03-20T07:18:26.075Z,18.90
2023-03-20T07:19:13.774Z,18.95
2023-03-20T07:20:00.954Z,18.00
2023-03-20T07:20:47.976Z,18.27
2023-03-20T07:21:35.180Z,17.40
2023-03-20T07:22:24.553Z,17.58
2023-03-20T07:23:12.095Z,17.58
2023-03-20T07:23:58.999Z,18.23
2023-03-20T07:24:47.308Z,18.02
2023-03-20T07:25:42.168Z,17.35
2023-03-20T07:26:30.478Z,17.62
2023-03-20T07:27:18.108Z,18.62
2023-03-20T07:28:06.177Z,18.02
2023-03-20T07:28:53.238Z,18.90
2023-03-20T07:29:40.071Z,17.83
2023-03-20T07:30:27.129Z,18.10
2023-03-20T07:31:21.375Z,17.25
2023-03-20T07:32:08.261Z,16.50
2023-03-20T07:32:55.178Z,17.83
2023-03-20T07:33:42.088Z,19.10
2023-03-20T07:34:28.997Z,19.05
2023-03-20T07:35:16.214Z,17.42
2023-03-20T07:36:03.160Z,18.17
2023-03-20T07:36:50.100Z,17.27
2023-03-20T07:37:36.957Z,19.05
2023-03-20T07:38:24.225Z,17.37
2023-03-20T07:39:14.377Z,17.92
2023-03-20T07:40:01.434Z,18.45
2023-03-20T07:40:49.274Z,17.67
2023-03-20T07:41:36.440Z,18.62
2023-03-20T07:42:23.318Z,18.55
2023-03-20T07:43:10.493Z,18.95
2023-03-20T07:43:59.433Z,17.77
2023-03-20T07:44:46.349Z,18.10
2023-03-20T07:45:33.467Z,20.42
2023-03-20T07:46:20.773Z,19.23
2023-03-20T07:47:07.970Z,19.08
2023-03-20T07:47:54.944Z,18.30
2023-03-20T07:48:41.950Z,20.02
2023-03-20T07:49:28.814Z,18.65
2023-03-20T07:50:16.304Z,18.10
2023-03-20T07:51:03.493Z,18.55
2023-03-20T07:51:51.020Z,18.00
2023-03-20T07:52:37.910Z,18.73
2023-03-20T07:53:24.814Z,19.92
2023-03-20T07:54:11.832Z,19.83
2023-03-20T07:54:58.672Z,20.00
2023-03-20T07:55:46.055Z,18.27
2023-03-20T07:56:33.223Z,18.60
2023-03-20T07:57:20.182Z,18.20
2023-03-20T07:58:08.824Z,18.77
2023-03-20T07:58:55.907Z,18.23
2023-03-20T07:59:43.031Z,19.23
2023-03-20T08:00:30.320Z,19.70
2023-03-20T08:01:19.442Z,18.12
2023-03-20T08:02:08.588Z,18.98
2023-03-20T08:02:57.329Z,19.58
2023-03-20T08:03:44.476Z,18.02
2023-03-20T08:04:31.543Z,17.42
2023-03-20T08:05:19.130Z,18.20
2023-03-20T08:06:08.732Z,16.95
2023-03-20T08:06:56.235Z,18.80
2023-03-20T08:07:43.431Z,17.17
2023-03-20T08:08:30.651Z,16.85
2023-03-20T08:09:18.153Z,17.35
2023-03-20T08:10:05.551Z,18.02
2023-03-20T08:10:52.603Z,18.27
2023-03-20T08:11:39.678Z,17.08
2023-03-20T08:12:26.887Z,17.33
2023-03-20T08:13:14.159Z,17.23
2023-03-20T08:14:01.294Z,17.37
2023-03-20T08:14:49.424Z,18.15
2023-03-20T08:15:36.556Z,16.75
2023-03-20T08:16:23.844Z,17.05
2023-03-20T08:17:15.540Z,16.48
2023-03-20T08:18:03.733Z,16.12
2023-03-20T08:18:51.088Z,16.33
2023-03-20T08:19:38.716Z,16.80
2023-03-20T08:20:26.607Z,16.80
2023-03-20T08:21:13.718Z,16.90
2023-03-20T08:22:00.841Z,17.70
2023-03-20T08:22:49.906Z,16.70
2023-03-20T08:23:36.724Z,16.85
2023-03-20T08:24:23.538Z,16.77
2023-03-20T08:25:10.909Z,16.67
2023-03-20T08:25:57.947Z,16.25
2023-03-20T08:26:46.406Z,17.67
2023-03-20T08:27:33.427Z,16.00
2023-03-20T08:28:21.483Z,17.75
2023-03-20T08:29:08.408Z,16.60
2023-03-20T08:29:55.637Z,17.50
2023-03-20T08:30:42.601Z,17.65
2023-03-20T08:31:29.933Z,17.67
2023-03-20T08:32:16.917Z,18.12
2023-03-20T08:33:04.066Z,18.05
2023-03-20T08:33:52.432Z,17.70
2023-03-20T08:34:39.510Z,17.62
2023-03-20T08:35:33.351Z,17.62
2023-03-20T08:36:21.632Z,17.98
2023-03-20T08:37:08.885Z,18.02
2023-03-20T08:37:56.097Z,17.52
2023-03-20T08:38:43.633Z,18.10
2023-03-20T08:39:30.949Z,18.92
2023-03-20T08:40:18.158Z,17.87
2023-03-20T08:41:07.331Z,17.83
2023-03-20T08:41:54.329Z,18.00
2023-03-20T08:42:41.408Z,18.12
2023-03-20T08:43:28.552Z,18.37
2023-03-20T08:44:16.027Z,18.45
2023-03-20T08:45:03.077Z,18.83
2023-03-20T08:45:50.153Z,17.50
2023-03-20T08:46:37.398Z,19.33
2023-03-20T08:47:24.581Z,18.45
2023-03-20T08:48:11.950Z,18.45
2023-03-20T08:49:00.975Z,18.60
2023-03-20T08:49:48.558Z,18.45
2023-03-20T08:50:35.748Z,18.42
2023-03-20T08:51:22.835Z,18.37
2023-03-20T08:52:09.939Z,18.70
2023-03-20T08:52:57.084Z,17.83
2023-03-20T08:53:44.195Z,18.15
2023-03-20T08:54:31.556Z,18.35
2023-03-20T08:55:18.798Z,17.73
2023-03-20T08:56:06.688Z,18.02
2023-03-20T08:56:53.950Z,18.83
2023-03-20T08:57:41.834Z,18.27
2023-03-20T08:58:29.866Z,17.15
2023-03-20T08:59:17.269Z,18.25
2023-03-20T09:00:06.849Z,18.45
2023-03-20T09:00:54.948Z,17.55
2023-03-20T09:01:49.672Z,17.67
2023-03-20T09:02:37.629Z,17.92
2023-03-20T09:03:26.269Z,18.08
2023-03-20T09:04:15.223Z,17.62
2023-03-20T09:05:02.813Z,18.17
2023-03-20T09:05:51.632Z,17.70
2023-03-20T09:06:39.164Z,17.75
2023-03-20T09:07:26.432Z,17.00
2023-03-20T09:08:14.805Z,17.52
2023-03-20T09:09:01.979Z,16.08
2023-03-20T09:09:49.578Z,17.48
2023-03-20T09:10:38.451Z,17.05
2023-03-20T09:11:25.872Z,17.20
2023-03-20T09:12:14.573Z,18.20
2023-03-20T09:13:19.549Z,18.62
2023-03-20T09:14:11.387Z,18.58
2023-03-20T09:14:59.434Z,19.55
2023-03-20T09:15:46.927Z,18.87
2023-03-20T09:16:35.844Z,18.05
2023-03-20T09:17:23.014Z,18.37
2023-03-20T09:18:10.522Z,18.45
2023-03-20T09:18:58.283Z,18.25
2023-03-20T09:19:46.445Z,18.73
2023-03-20T09:20:33.548Z,18.20
2023-03-20T09:21:21.132Z,18.10
2023-03-20T09:22:08.334Z,18.58
2023-03-20T09:22:57.359Z,17.95
2023-03-20T09:23:44.484Z,18.55
2023-03-20T09:24:33.174Z,18.48
2023-03-20T09:25:21.408Z,18.37
2023-03-20T09:26:09.223Z,19.15
2023-03-20T09:26:56.909Z,18.37
2023-03-20T09:27:44.487Z,18.92
2023-03-20T09:28:35.047Z,17.95
2023-03-20T09:29:22.853Z,18.27
2023-03-20T09:30:11.536Z,18.23
2023-03-20T09:31:00.312Z,18.17
2023-03-20T09:31:47.402Z,18.60
2023-03-20T09:32:35.371Z,17.90
2023-03-20T09:33:22.844Z,18.05
2023-03-20T09:34:10.656Z,17.55
2023-03-20T09:34:57.691Z,18.23
2023-03-20T09:35:45.680Z,18.42
2023-03-20T09:36:33.801Z,18.42
2023-03-20T09:37:20.929Z,17.12
2023-03-20T09:38:08.553Z,17.55
2023-03-20T09:38:55.839Z,17.55
2023-03-20T09:39:43.335Z,19.27
2023-03-20T09:40:39.456Z,17.67
2023-03-20T09:41:28.499Z,18.30
2023-03-20T09:42:37.554Z,17.65
2023-03-20T09:43:53.310Z,18.62
2023-03-20T09:44:54.974Z,19.10
2023-03-20T09:45:55.252Z,19.05
2023-03-20T09:47:19.908Z,19.48
2023-03-20T09:48:14.035Z,18.90
2023-03-20T09:49:36.693Z,17.98
2023-03-20T09:50:35.193Z,19.00
2023-03-20T09:51:41.484Z,17.92
2023-03-20T09:52:33.604Z,19.40
2023-03-20T09:53:41.920Z,18.83
2023-03-20T09:54:53.596Z,21.45
2023-03-20T09:55:43.354Z,18.80
2023-03-20T09:56:31.834Z,19.60
2023-03-20T09:57:26.493Z,19.48
2023-03-20T09:58:20.386Z,19.73
2023-03-20T09:59:08.068Z,18.83
2023-03-20T09:59:59.253Z,18.50
2023-03-20T10:00:47.292Z,19.35
2023-03-20T10:01:46.208Z,19.15
2023-03-20T10:02:51.555Z,19.30
2023-03-20T10:03:55.648Z,19.52
2023-03-20T10:04:43.452Z,20.27
2023-03-20T10:05:40.384Z,20.33
2023-03-20T10:06:29.977Z,19.58
2023-03-20T10:07:18.725Z,20.53
2023-03-20T10:08:07.387Z,20.30
2023-03-20T10:08:56.191Z,20.42
2023-03-20T10:09:43.482Z,19.70
2023-03-20T10:11:01.074Z,19.87
2023-03-20T10:12:13.243Z,19.83
2023-03-20T10:13:13.515Z,20.33
2023-03-20T10:14:18.974Z,20.92
2023-03-20T10:15:41.790Z,20.27
2023-03-20T10:16:28.840Z,19.85
2023-03-20T10:17:33.373Z,20.58
2023-03-20T10:18:25.878Z,19.37
2023-03-20T10:19:34.868Z,20.67
2023-03-20T10:20:26.761Z,20.60
2023-03-20T10:21:20.522Z,20.15
2023-03-20T10:22:27.611Z,19.62
2023-03-20T10:23:26.007Z,22.08
2023-03-20T10:24:43.122Z,19.95
2023-03-20T10:25:38.097Z,19.25
2023-03-20T10:26:25.232Z,20.15
2023-03-20T10:27:28.208Z,20.42
2023-03-20T10:28:41.536Z,20.25
2023-03-20T10:29:44.193Z,19.90
2023-03-20T10:30:31.926Z,19.40
2023-03-20T10:31:30.191Z,19.08
2023-03-20T10:32:39.477Z,19.27
2023-03-20T10:33:27.484Z,18.15
2023-03-20T10:34:42.147Z,17.00
2023-03-20T10:35:29.506Z,16.40
2023-03-20T10:36:36.470Z,17.12
2023-03-20T10:37:41.942Z,17.05
2023-03-20T10:38:49.316Z,16.58
2023-03-20T10:39:42.524Z,17.73
2023-03-20T10:40:41.912Z,17.62
2023-03-20T10:41:34.399Z,16.35
2023-03-20T10:42:25.002Z,16.85
2023-03-20T10:43:18.511Z,16.55
2023-03-20T10:44:08.487Z,17.52
2023-03-20T10:45:28.034Z,18.15
2023-03-20T10:46:19.632Z,17.90
2023-03-20T10:47:10.984Z,18.33
2023-03-20T10:48:03.183Z,18.05
2023-03-20T10:48:57.247Z,17.77
2023-03-20T10:49:51.697Z,18.90
2023-03-20T10:50:45.774Z,19.55
2023-03-20T10:52:00.864Z,18.70
2023-03-20T10:52:50.423Z,18.05
2023-03-20T10:53:58.605Z,17.73
2023-03-20T10:54:52.651Z,17.33
2023-03-20T10:55:42.019Z,17.50
2023-03-20T10:56:37.427Z,19.08